Time;durP1;ratioP1;P1;durP2;ratioP2;P2;SDS_P1;SDS_P2;PMS_P1;PMS_P2;Temp;Humidity;BMP_temperature;BMP_pressure;BME280_temperature;BME280_humidity;BME280_pressure;Samples;Min_cycle;Max_cycle;Signal;HPM_P1;HPM_P2
2021/01/05 00:01:40;;;;;;;16.55;11.30;;;;;;;;;;5125850;28;20177;-55
2021/01/05 00:04:07;;;;;;;16.25;11.50;;;;;;;;;;5126137;28;20205;-54
2021/01/05 00:06:46;;;;;;;14.43;10.65;;;;;;;;;;5131578;28;20202;-48
2021/01/05 00:09:13;;;;;;;14.98;10.32;;;;;;;;;;5136292;28;20233;-47
2021/01/05 00:11:55;;;;;;;15.30;11.45;;;;;;;;;;5118891;28;20211;-51
2021/01/05 00:14:34;;;;;;;16.15;11.27;;;;;;;;;;5118748;28;20191;-48
2021/01/05 00:17:00;;;;;;;21.85;12.40;;;;;;;;;;5110766;28;20213;-49
2021/01/05 00:19:27;;;;;;;15.70;10.73;;;;;;;;;;5137751;28;20206;-47
2021/01/05 00:21:55;;;;;;;13.65;10.68;;;;;;;;;;5139248;28;20278;-51
2021/01/05 00:24:22;;;;;;;17.17;11.95;;;;;;;;;;5134242;28;20200;-54
2021/01/05 00:26:50;;;;;;;17.50;12.10;;;;;;;;;;5134710;28;20183;-52
2021/01/05 00:29:16;;;;;;;18.60;12.25;;;;;;;;;;5126379;28;20211;-54
2021/01/05 00:31:44;;;;;;;13.82;9.93;;;;;;;;;;5130072;28;20186;-46
2021/01/05 00:34:43;;;;;;;17.08;11.52;;;;;;;;;;5137441;28;20191;-54
2021/01/05 00:37:10;;;;;;;18.50;11.20;;;;;;;;;;5136652;28;20202;-53
2021/01/05 00:39:37;;;;;;;17.33;11.75;;;;;;;;;;5124573;28;20190;-54
2021/01/05 00:42:24;;;;;;;17.42;12.10;;;;;;;;;;5139084;28;20186;-50
2021/01/05 00:44:51;;;;;;;15.93;11.13;;;;;;;;;;5136560;28;20224;-53
2021/01/05 00:47:19;;;;;;;18.80;12.60;;;;;;;;;;5136470;28;20203;-47
2021/01/05 00:49:51;;;;;;;16.77;12.07;;;;;;;;;;5138312;28;20209;-55
2021/01/05 00:52:18;;;;;;;16.42;11.00;;;;;;;;;;5139394;28;20213;-53
2021/01/05 00:54:45;;;;;;;16.85;11.65;;;;;;;;;;5134526;28;20182;-48
2021/01/05 00:57:19;;;;;;;19.65;12.60;;;;;;;;;;5128800;28;20190;-52
2021/01/05 00:59:46;;;;;;;16.92;12.25;;;;;;;;;;5132361;28;20193;-52
2021/01/05 01:02:13;;;;;;;20.88;11.70;;;;;;;;;;5118637;28;20262;-49
2021/01/05 01:04:53;;;;;;;16.42;11.13;;;;;;;;;;5117915;28;20199;-51
2021/01/05 01:07:19;;;;;;;17.95;11.40;;;;;;;;;;5126775;28;20204;-53
2021/01/05 01:10:02;;;;;;;17.73;12.07;;;;;;;;;;5133459;28;20221;-51
2021/01/05 01:12:50;;;;;;;14.85;11.48;;;;;;;;;;5134396;28;20273;-56
2021/01/05 01:15:18;;;;;;;17.15;12.35;;;;;;;;;;5119207;28;20186;-52
2021/01/05 01:17:45;;;;;;;17.42;11.40;;;;;;;;;;5124276;28;20199;-47
2021/01/05 01:20:21;;;;;;;16.55;10.80;;;;;;;;;;5119103;28;20460;-51
2021/01/05 01:22:49;;;;;;;19.30;11.88;;;;;;;;;;5155589;27;20556;-47
2021/01/05 01:25:27;;;;;;;18.02;12.32;;;;;;;;;;5160347;27;20188;-53
2021/01/05 01:27:54;;;;;;;17.10;12.18;;;;;;;;;;5152140;27;20294;-52
2021/01/05 01:30:21;;;;;;;30.20;12.75;;;;;;;;;;5135942;28;20195;-45
2021/01/05 01:35:53;;;;;;;17.80;11.90;;;;;;;;;;5133026;28;20231;-53
2021/01/05 01:38:20;;;;;;;22.20;13.20;;;;;;;;;;5117619;28;20217;-53
2021/01/05 01:40:46;;;;;;;17.83;11.43;;;;;;;;;;5136662;28;20187;-53
2021/01/05 01:43:13;;;;;;;22.23;13.55;;;;;;;;;;5120551;28;20283;-52
2021/01/05 01:46:08;;;;;;;18.55;12.20;;;;;;;;;;5137783;28;20183;-52
2021/01/05 01:48:35;;;;;;;18.08;12.32;;;;;;;;;;5140106;27;20195;-48
2021/01/05 01:51:03;;;;;;;18.33;13.52;;;;;;;;;;5131562;27;20190;-51
2021/01/05 01:53:42;;;;;;;16.83;11.20;;;;;;;;;;5129695;28;20237;-56
2021/01/05 01:56:16;;;;;;;18.15;11.80;;;;;;;;;;5110627;28;20200;-52
2021/01/05 01:59:04;;;;;;;21.02;12.00;;;;;;;;;;5117525;28;20293;-51
2021/01/05 02:01:45;;;;;;;17.20;12.05;;;;;;;;;;5128547;28;20193;-51
2021/01/05 02:04:38;;;;;;;23.48;12.43;;;;;;;;;;5113313;28;20203;-55
2021/01/05 02:07:35;;;;;;;19.30;12.40;;;;;;;;;;5111014;28;20203;-57
2021/01/05 02:10:21;;;;;;;17.55;11.90;;;;;;;;;;5100659;28;20201;-50
2021/01/05 02:12:59;;;;;;;15.90;11.00;;;;;;;;;;5116918;28;20254;-50
2021/01/05 02:15:35;;;;;;;14.95;11.32;;;;;;;;;;5116629;28;20191;-52
2021/01/05 02:18:25;;;;;;;16.85;11.70;;;;;;;;;;5111167;28;20182;-55
2021/01/05 02:21:09;;;;;;;17.17;12.15;;;;;;;;;;5130149;28;20203;-53
2021/01/05 02:24:01;;;;;;;15.70;10.57;;;;;;;;;;5115441;28;20203;-58
2021/01/05 02:26:37;;;;;;;20.30;13.57;;;;;;;;;;5121811;28;20280;-52
2021/01/05 02:29:11;;;;;;;19.83;13.65;;;;;;;;;;5108387;28;20199;-55
2021/01/05 02:31:55;;;;;;;19.20;12.27;;;;;;;;;;5115696;28;20199;-48
2021/01/05 02:34:27;;;;;;;17.92;11.90;;;;;;;;;;5118115;28;20281;-54
2021/01/05 02:37:00;;;;;;;17.25;11.43;;;;;;;;;;5117600;28;20196;-59
2021/01/05 02:42:52;;;;;;;19.85;12.60;;;;;;;;;;5117921;28;20209;-56
2021/01/05 02:45:27;;;;;;;18.50;13.38;;;;;;;;;;5113044;28;20186;-44
2021/01/05 02:48:15;;;;;;;14.95;11.82;;;;;;;;;;5136103;28;20221;-52
2021/01/05 02:54:12;;;;;;;22.77;14.88;;;;;;;;;;5121859;28;20229;-50
2021/01/05 02:56:53;;;;;;;18.73;12.90;;;;;;;;;;5138073;28;20203;-55
2021/01/05 02:59:55;;;;;;;22.20;13.20;;;;;;;;;;5104844;28;20206;-47
2021/01/05 03:02:49;;;;;;;19.00;12.95;;;;;;;;;;5117605;28;20266;-51
2021/01/05 03:05:22;;;;;;;20.63;12.80;;;;;;;;;;5118230;28;20202;-52
2021/01/05 03:08:01;;;;;;;21.63;13.80;;;;;;;;;;5117853;28;20203;-46
2021/01/05 03:10:31;;;;;;;20.45;13.55;;;;;;;;;;5116074;28;20207;-56
2021/01/05 03:13:17;;;;;;;19.17;12.00;;;;;;;;;;5134837;28;20284;-51
2021/01/05 03:15:46;;;;;;;18.23;12.32;;;;;;;;;;5136291;28;20209;-54
2021/01/05 03:18:21;;;;;;;17.25;12.40;;;;;;;;;;5124990;28;20202;-55
2021/01/05 03:20:51;;;;;;;22.08;13.85;;;;;;;;;;5136674;28;20228;-55
2021/01/05 03:23:18;;;;;;;21.17;13.05;;;;;;;;;;5136634;28;20198;-52
2021/01/05 03:25:48;;;;;;;18.13;12.00;;;;;;;;;;5136497;28;20186;-50
2021/01/05 03:28:28;;;;;;;18.77;12.55;;;;;;;;;;5136693;28;20189;-57
2021/01/05 03:30:58;;;;;;;18.20;12.00;;;;;;;;;;5136782;28;20190;-48
2021/01/05 03:33:27;;;;;;;21.20;13.40;;;;;;;;;;5118899;28;20223;-54
2021/01/05 03:35:59;;;;;;;16.80;11.55;;;;;;;;;;5130433;28;20203;-57
2021/01/05 03:38:27;;;;;;;20.67;13.45;;;;;;;;;;5113567;28;20230;-51
2021/01/05 03:40:56;;;;;;;16.42;12.32;;;;;;;;;;5128485;28;20198;-54
2021/01/05 03:43:25;;;;;;;20.08;12.35;;;;;;;;;;5121592;28;20200;-57
2021/01/05 03:45:52;;;;;;;18.67;12.40;;;;;;;;;;5122391;28;20187;-58
2021/01/05 03:48:19;;;;;;;16.83;11.70;;;;;;;;;;5137280;28;20199;-58
2021/01/05 03:51:05;;;;;;;16.67;11.43;;;;;;;;;;5137496;28;20193;-57
2021/01/05 03:53:33;;;;;;;19.13;13.05;;;;;;;;;;5117745;28;20234;-56
2021/01/05 03:56:00;;;;;;;20.98;14.02;;;;;;;;;;5116582;28;20203;-54
2021/01/05 03:58:29;;;;;;;20.60;13.20;;;;;;;;;;5136759;28;20186;-55
2021/01/05 04:00:56;;;;;;;19.65;13.07;;;;;;;;;;5141103;28;20190;-56
2021/01/05 04:03:23;;;;;;;20.70;13.43;;;;;;;;;;5130944;28;20201;-50
2021/01/05 04:05:51;;;;;;;17.98;11.20;;;;;;;;;;5120151;28;20192;-54
2021/01/05 04:08:18;;;;;;;19.83;13.40;;;;;;;;;;5117030;28;20183;-48
2021/01/05 04:10:45;;;;;;;21.58;13.25;;;;;;;;;;5120116;28;20198;-54
2021/01/05 04:13:27;;;;;;;21.63;13.50;;;;;;;;;;5118551;28;20219;-53
2021/01/05 04:15:54;;;;;;;21.75;12.55;;;;;;;;;;5119657;28;20203;-54
2021/01/05 04:18:21;;;;;;;18.70;13.23;;;;;;;;;;5119751;28;20172;-50
2021/01/05 04:21:03;;;;;;;21.17;13.40;;;;;;;;;;5119819;28;20206;-55
2021/01/05 04:23:34;;;;;;;19.23;12.45;;;;;;;;;;5119467;28;20398;-57
2021/01/05 04:26:00;;;;;;;18.50;12.57;;;;;;;;;;5115035;28;20187;-55
2021/01/05 04:28:29;;;;;;;21.00;12.75;;;;;;;;;;5117054;28;20191;-54
2021/01/05 04:30:56;;;;;;;21.77;13.18;;;;;;;;;;5119458;28;20202;-54
2021/01/05 04:33:23;;;;;;;21.45;13.38;;;;;;;;;;5119906;28;20226;-55
2021/01/05 04:36:06;;;;;;;20.17;12.23;;;;;;;;;;5119351;28;20253;-51
2021/01/05 04:38:34;;;;;;;20.63;13.70;;;;;;;;;;5120002;28;20198;-48
2021/01/05 04:41:01;;;;;;;22.50;11.82;;;;;;;;;;5119962;28;20192;-57
2021/01/05 04:43:46;;;;;;;21.38;13.43;;;;;;;;;;5117313;28;20260;-53
2021/01/05 04:46:33;;;;;;;20.70;12.13;;;;;;;;;;5098862;28;20188;-51
2021/01/05 04:49:03;;;;;;;17.80;11.63;;;;;;;;;;5093519;28;20310;-49
2021/01/05 04:51:40;;;;;;;20.98;12.32;;;;;;;;;;5099208;28;20176;-53
2021/01/05 04:54:34;;;;;;;17.77;11.00;;;;;;;;;;5070032;28;20247;-57
2021/01/05 04:57:07;;;;;;;18.75;12.68;;;;;;;;;;5076618;28;20210;-53
2021/01/05 04:59:36;;;;;;;19.00;12.50;;;;;;;;;;5075806;28;20216;-51
2021/01/05 05:02:03;;;;;;;19.65;11.82;;;;;;;;;;5079838;28;20349;-54
2021/01/05 05:04:34;;;;;;;21.25;13.07;;;;;;;;;;5095718;28;20191;-56
2021/01/05 05:07:08;;;;;;;19.80;12.07;;;;;;;;;;5098427;28;20193;-50
2021/01/05 05:09:41;;;;;;;26.90;14.80;;;;;;;;;;5098603;28;20180;-50
2021/01/05 05:12:21;;;;;;;21.60;12.45;;;;;;;;;;5098350;28;20172;-55
2021/01/05 05:15:08;;;;;;;16.77;11.80;;;;;;;;;;5097654;28;20222;-49
2021/01/05 05:17:42;;;;;;;18.50;12.73;;;;;;;;;;5074966;28;20212;-54
2021/01/05 05:20:30;;;;;;;23.00;14.82;;;;;;;;;;5078458;28;20203;-54
2021/01/05 05:23:03;;;;;;;22.35;14.23;;;;;;;;;;5046089;28;20211;-57
2021/01/05 05:25:36;;;;;;;20.80;13.25;;;;;;;;;;5078194;28;20189;-53
2021/01/05 05:28:27;;;;;;;18.80;12.40;;;;;;;;;;5078375;28;20201;-53
2021/01/05 05:30:56;;;;;;;18.00;11.85;;;;;;;;;;5102513;28;20187;-54
2021/01/05 05:33:25;;;;;;;18.10;10.88;;;;;;;;;;5118325;28;20227;-54
2021/01/05 05:36:14;;;;;;;19.88;11.23;;;;;;;;;;5118160;28;20206;-53
2021/01/05 05:38:53;;;;;;;20.33;12.52;;;;;;;;;;5115673;28;20208;-49
2021/01/05 05:44:27;;;;;;;18.00;11.20;;;;;;;;;;5113611;28;20174;-52
2021/01/05 05:47:02;;;;;;;20.17;13.25;;;;;;;;;;5114231;28;20196;-51
2021/01/05 05:52:34;;;;;;;21.63;12.75;;;;;;;;;;5138360;27;20247;-50
2021/01/05 05:55:04;;;;;;;21.58;13.52;;;;;;;;;;5159003;27;20186;-52
2021/01/05 05:57:57;;;;;;;21.30;12.50;;;;;;;;;;5159323;27;20190;-52
2021/01/05 06:00:29;;;;;;;23.67;14.65;;;;;;;;;;5140677;27;20314;-47
2021/01/05 06:02:59;;;;;;;21.92;13.73;;;;;;;;;;5138316;27;20189;-56
2021/01/05 06:05:27;;;;;;;22.08;11.90;;;;;;;;;;5138076;27;20214;-56
2021/01/05 06:07:56;;;;;;;23.67;12.45;;;;;;;;;;5138385;28;20189;-49
2021/01/05 06:10:42;;;;;;;19.80;12.98;;;;;;;;;;5137873;28;20185;-51
2021/01/05 06:13:09;;;;;;;21.77;12.02;;;;;;;;;;5137287;28;20358;-56
2021/01/05 06:15:37;;;;;;;19.67;12.55;;;;;;;;;;5138023;27;20191;-50
2021/01/05 06:18:10;;;;;;;19.63;13.30;;;;;;;;;;5138222;27;20219;-56
2021/01/05 06:20:37;;;;;;;20.52;12.30;;;;;;;;;;5137311;28;20213;-53
2021/01/05 06:23:04;;;;;;;21.00;12.82;;;;;;;;;;5138317;27;20258;-55
2021/01/05 06:25:37;;;;;;;19.48;12.90;;;;;;;;;;5138162;27;20196;-53
2021/01/05 06:28:04;;;;;;;21.15;12.30;;;;;;;;;;5137688;28;20210;-56
2021/01/05 06:30:32;;;;;;;22.77;12.90;;;;;;;;;;5137234;28;20213;-51
2021/01/05 06:36:03;;;;;;;18.73;12.02;;;;;;;;;;5138142;27;20200;-57
2021/01/05 06:38:30;;;;;;;19.33;12.40;;;;;;;;;;5137891;27;20272;-55
2021/01/05 06:41:01;;;;;;;18.65;12.00;;;;;;;;;;5136939;27;20229;-58
2021/01/05 06:43:28;;;;;;;20.60;11.80;;;;;;;;;;5147894;27;20202;-55
2021/01/05 06:45:56;;;;;;;22.88;13.15;;;;;;;;;;5157072;27;20194;-48
2021/01/05 06:48:25;;;;;;;21.75;12.85;;;;;;;;;;5157280;27;20198;-49
2021/01/05 06:50:52;;;;;;;17.70;12.30;;;;;;;;;;5151714;27;20231;-51
2021/01/05 06:53:20;;;;;;;20.92;14.15;;;;;;;;;;5118457;28;20226;-56
2021/01/05 06:55:47;;;;;;;18.38;12.05;;;;;;;;;;5135420;27;20200;-56
2021/01/05 06:58:13;;;;;;;22.40;14.18;;;;;;;;;;5156925;27;20205;-53
2021/01/05 07:00:40;;;;;;;20.83;12.40;;;;;;;;;;5156243;27;20222;-54
2021/01/05 07:03:07;;;;;;;22.25;12.07;;;;;;;;;;5154464;27;20226;-52
2021/01/05 07:05:34;;;;;;;22.83;13.27;;;;;;;;;;5136006;28;20202;-55
2021/01/05 07:11:08;;;;;;;22.15;14.10;;;;;;;;;;5147604;28;20229;-54
2021/01/05 07:13:37;;;;;;;22.13;13.68;;;;;;;;;;5156788;28;20289;-55
2021/01/05 07:16:09;;;;;;;20.80;12.45;;;;;;;;;;5156778;28;20235;-53
2021/01/05 07:18:36;;;;;;;26.30;13.73;;;;;;;;;;5146095;28;20207;-55
2021/01/05 07:21:05;;;;;;;21.20;13.93;;;;;;;;;;5118681;28;20207;-54
2021/01/05 07:23:41;;;;;;;22.30;14.27;;;;;;;;;;5136093;28;20194;-56
2021/01/05 07:26:09;;;;;;;20.10;11.63;;;;;;;;;;5135746;28;20206;-53
2021/01/05 07:28:39;;;;;;;20.95;14.00;;;;;;;;;;5136000;28;20179;-57
2021/01/05 07:31:12;;;;;;;22.67;13.13;;;;;;;;;;5135849;28;20217;-49
2021/01/05 07:33:39;;;;;;;27.05;15.13;;;;;;;;;;5138476;28;20287;-53
2021/01/05 07:36:08;;;;;;;22.52;13.85;;;;;;;;;;5140345;28;20218;-53
2021/01/05 07:38:35;;;;;;;22.38;14.55;;;;;;;;;;5140527;28;20191;-54
2021/01/05 07:41:02;;;;;;;24.40;12.82;;;;;;;;;;5139792;28;20205;-52
2021/01/05 07:43:32;;;;;;;24.83;13.25;;;;;;;;;;5140010;28;20186;-51
2021/01/05 07:49:02;;;;;;;23.77;13.98;;;;;;;;;;5119173;28;20186;-56
2021/01/05 07:51:29;;;;;;;19.60;11.95;;;;;;;;;;5158245;27;20264;-57
2021/01/05 07:54:14;;;;;;;21.35;13.00;;;;;;;;;;5159513;27;20229;-53
2021/01/05 07:56:44;;;;;;;24.00;13.85;;;;;;;;;;5157487;27;20179;-53
2021/01/05 07:59:12;;;;;;;22.00;14.50;;;;;;;;;;5160763;27;20186;-54
2021/01/05 08:02:03;;;;;;;21.25;13.15;;;;;;;;;;5159961;27;20207;-55
2021/01/05 08:04:30;;;;;;;17.70;11.15;;;;;;;;;;5160032;27;20190;-54
2021/01/05 08:06:57;;;;;;;22.35;12.82;;;;;;;;;;5160077;27;20231;-58
2021/01/05 08:09:26;;;;;;;23.40;13.38;;;;;;;;;;5159226;27;20547;-55
2021/01/05 08:11:53;;;;;;;21.25;11.63;;;;;;;;;;5160210;27;20208;-53
2021/01/05 08:14:21;;;;;;;18.50;11.15;;;;;;;;;;5160347;27;20216;-48
2021/01/05 08:17:25;;;;;;;16.73;10.90;;;;;;;;;;5159898;27;20185;-57
2021/01/05 08:19:52;;;;;;;19.13;10.95;;;;;;;;;;5144150;27;20247;-54
2021/01/05 08:22:19;;;;;;;20.33;11.77;;;;;;;;;;5140059;28;20191;-52
2021/01/05 08:24:50;;;;;;;17.35;11.25;;;;;;;;;;5139654;28;20258;-52
2021/01/05 08:27:16;;;;;;;18.23;10.77;;;;;;;;;;5137138;28;20222;-58
2021/01/05 08:29:45;;;;;;;20.55;12.13;;;;;;;;;;5138368;28;20225;-57
2021/01/05 08:32:14;;;;;;;24.27;12.70;;;;;;;;;;5138111;28;20206;-56
2021/01/05 08:34:41;;;;;;;15.15;10.93;;;;;;;;;;5138234;28;20215;-52
2021/01/05 08:37:08;;;;;;;19.73;12.15;;;;;;;;;;5138504;28;20209;-51
2021/01/05 08:39:42;;;;;;;17.55;10.38;;;;;;;;;;5138289;28;20209;-58
2021/01/05 08:42:12;;;;;;;24.38;12.20;;;;;;;;;;5138169;28;20218;-51
2021/01/05 08:44:38;;;;;;;21.98;12.15;;;;;;;;;;5136905;28;20194;-52
2021/01/05 08:47:08;;;;;;;20.38;11.98;;;;;;;;;;5138140;28;20190;-44
2021/01/05 08:49:35;;;;;;;29.70;13.63;;;;;;;;;;5138755;28;20241;-54
2021/01/05 08:52:03;;;;;;;23.90;13.13;;;;;;;;;;5138396;28;20198;-47
2021/01/05 08:54:52;;;;;;;20.42;12.85;;;;;;;;;;5142334;27;20238;-53
2021/01/05 08:57:20;;;;;;;20.48;11.48;;;;;;;;;;5118652;28;20199;-54
2021/01/05 08:59:48;;;;;;;27.05;12.45;;;;;;;;;;5117954;28;20306;-55
2021/01/05 09:02:22;;;;;;;22.38;13.15;;;;;;;;;;5116478;28;20289;-49
2021/01/05 09:04:50;;;;;;;27.05;13.38;;;;;;;;;;5118456;28;20198;-58
2021/01/05 09:07:19;;;;;;;20.05;12.73;;;;;;;;;;5128496;28;20203;-56
2021/01/05 09:09:58;;;;;;;21.73;12.55;;;;;;;;;;5117408;28;20247;-52
2021/01/05 09:12:25;;;;;;;21.17;12.32;;;;;;;;;;5117051;28;20198;-52
2021/01/05 09:14:52;;;;;;;23.98;12.70;;;;;;;;;;5117466;28;20261;-55
2021/01/05 09:17:26;;;;;;;21.13;11.90;;;;;;;;;;5117451;28;20192;-56
2021/01/05 09:19:53;;;;;;;20.25;11.65;;;;;;;;;;5117094;28;20207;-53
2021/01/05 09:22:22;;;;;;;18.75;12.68;;;;;;;;;;5117177;28;20207;-56
2021/01/05 09:24:49;;;;;;;20.15;12.18;;;;;;;;;;5136984;28;20209;-57
2021/01/05 09:27:16;;;;;;;19.45;10.98;;;;;;;;;;5136891;28;20231;-51
2021/01/05 09:29:45;;;;;;;21.17;12.82;;;;;;;;;;5136720;28;20204;-57
2021/01/05 09:32:12;;;;;;;23.63;12.48;;;;;;;;;;5137532;28;20190;-50
2021/01/05 09:34:39;;;;;;;17.88;11.52;;;;;;;;;;5125147;28;20258;-56
2021/01/05 09:37:06;;;;;;;19.38;12.63;;;;;;;;;;5098428;28;20195;-54
2021/01/05 09:39:33;;;;;;;21.02;12.55;;;;;;;;;;5116538;28;20214;-54
2021/01/05 09:42:03;;;;;;;18.75;12.18;;;;;;;;;;5115848;28;20192;-55
2021/01/05 09:44:31;;;;;;;18.65;11.93;;;;;;;;;;5116707;28;20255;-54
2021/01/05 09:47:01;;;;;;;18.08;11.52;;;;;;;;;;5116047;28;20283;-59
2021/01/05 09:49:50;;;;;;;21.02;13.10;;;;;;;;;;5121735;28;20194;-54
2021/01/05 09:52:19;;;;;;;22.13;12.70;;;;;;;;;;5150559;27;20283;-56
2021/01/05 09:55:04;;;;;;;23.25;12.25;;;;;;;;;;5158814;27;20240;-53
2021/01/05 09:57:37;;;;;;;21.30;12.15;;;;;;;;;;5137233;28;20221;-53
2021/01/05 10:00:06;;;;;;;28.83;14.50;;;;;;;;;;5126350;28;20242;-55
2021/01/05 10:02:33;;;;;;;18.02;12.52;;;;;;;;;;5137107;28;20213;-54
2021/01/05 10:05:02;;;;;;;22.95;12.60;;;;;;;;;;5136343;28;20225;-53
2021/01/05 10:07:30;;;;;;;23.15;13.88;;;;;;;;;;5136468;28;20213;-55
2021/01/05 10:09:57;;;;;;;23.40;14.18;;;;;;;;;;5136769;28;20205;-50
2021/01/05 10:12:34;;;;;;;27.10;15.13;;;;;;;;;;5137031;28;20190;-57
2021/01/05 10:15:02;;;;;;;27.75;13.95;;;;;;;;;;5136309;28;20186;-57
2021/01/05 10:17:29;;;;;;;24.25;13.27;;;;;;;;;;5136348;28;20241;-55
2021/01/05 10:19:57;;;;;;;21.33;13.00;;;;;;;;;;5134491;27;20210;-57
2021/01/05 10:22:24;;;;;;;23.70;14.07;;;;;;;;;;5135500;28;20190;-49
2021/01/05 10:25:11;;;;;;;24.27;14.32;;;;;;;;;;5135792;28;20249;-58
2021/01/05 10:27:38;;;;;;;23.38;13.63;;;;;;;;;;5133432;28;20198;-56
2021/01/05 10:30:06;;;;;;;26.15;14.88;;;;;;;;;;5119220;28;20218;-48
2021/01/05 10:32:33;;;;;;;26.45;14.90;;;;;;;;;;5114921;28;20198;-57
2021/01/05 10:35:00;;;;;;;20.90;14.02;;;;;;;;;;5115144;28;20186;-55
2021/01/05 10:38:00;;;;;;;22.40;13.27;;;;;;;;;;5115622;28;20190;-52
2021/01/05 10:40:32;;;;;;;25.45;14.77;;;;;;;;;;5115193;28;20191;-54
2021/01/05 10:43:00;;;;;;;28.38;14.40;;;;;;;;;;5130250;28;20186;-60
2021/01/05 10:45:35;;;;;;;23.80;14.55;;;;;;;;;;5128903;28;20203;-53
2021/01/05 10:48:02;;;;;;;24.15;14.57;;;;;;;;;;5127034;28;20185;-53
2021/01/05 10:50:29;;;;;;;23.85;14.48;;;;;;;;;;5125044;28;20255;-51
2021/01/05 10:53:00;;;;;;;24.88;14.68;;;;;;;;;;5116050;28;20235;-51
2021/01/05 10:55:33;;;;;;;22.92;13.70;;;;;;;;;;5134475;28;20206;-49
2021/01/05 11:01:00;;;;;;;21.30;14.75;;;;;;;;;;5113852;28;20237;-55
2021/01/05 11:03:36;;;;;;;29.50;14.43;;;;;;;;;;5115424;28;20208;-57
2021/01/05 11:06:03;;;;;;;26.73;13.60;;;;;;;;;;5128558;28;20190;-58
2021/01/05 11:08:33;;;;;;;23.63;14.65;;;;;;;;;;5128740;28;20332;-56
2021/01/05 11:11:15;;;;;;;22.55;13.35;;;;;;;;;;5133145;28;20199;-60
2021/01/05 11:13:46;;;;;;;22.70;12.43;;;;;;;;;;5134838;28;20251;-56
2021/01/05 11:16:14;;;;;;;25.00;14.88;;;;;;;;;;5128835;28;20236;-56
2021/01/05 11:19:12;;;;;;;25.90;14.02;;;;;;;;;;5115146;28;20193;-55
2021/01/05 11:22:04;;;;;;;23.65;13.95;;;;;;;;;;5123645;28;20256;-55
2021/01/05 11:24:45;;;;;;;26.65;14.32;;;;;;;;;;5115571;28;20207;-58
2021/01/05 11:27:13;;;;;;;25.15;14.05;;;;;;;;;;5132097;28;20232;-55
2021/01/05 11:29:40;;;;;;;26.27;12.88;;;;;;;;;;5132149;28;20232;-51
2021/01/05 11:32:26;;;;;;;26.45;15.38;;;;;;;;;;5134574;28;20208;-53
2021/01/05 11:34:53;;;;;;;23.75;14.18;;;;;;;;;;5122498;28;20226;-54
2021/01/05 11:37:21;;;;;;;25.55;15.43;;;;;;;;;;5129833;28;20202;-49
2021/01/05 11:40:23;;;;;;;22.70;14.63;;;;;;;;;;5122478;28;20191;-55
2021/01/05 11:42:50;;;;;;;30.92;13.40;;;;;;;;;;5114374;28;20338;-49
2021/01/05 11:45:18;;;;;;;23.17;14.48;;;;;;;;;;5129545;28;20205;-54
2021/01/05 11:48:09;;;;;;;20.60;13.13;;;;;;;;;;5131370;28;20213;-53
2021/01/05 11:50:37;;;;;;;24.88;15.05;;;;;;;;;;5129620;28;20203;-55
2021/01/05 11:53:05;;;;;;;23.65;14.38;;;;;;;;;;5135444;28;20202;-53
2021/01/05 11:58:35;;;;;;;25.13;15.63;;;;;;;;;;5120240;28;20201;-54
2021/01/05 12:01:02;;;;;;;26.63;15.73;;;;;;;;;;5134783;28;20214;-52
2021/01/05 12:03:43;;;;;;;28.83;15.70;;;;;;;;;;5135020;28;20199;-52
2021/01/05 12:06:15;;;;;;;20.77;13.77;;;;;;;;;;5132520;28;20258;-50
2021/01/05 12:08:42;;;;;;;28.75;14.10;;;;;;;;;;5134402;28;20203;-56
2021/01/05 12:11:28;;;;;;;26.75;14.95;;;;;;;;;;5134979;28;20203;-52
2021/01/05 12:13:55;;;;;;;27.95;15.82;;;;;;;;;;5135035;28;20225;-52
2021/01/05 12:16:26;;;;;;;27.13;13.57;;;;;;;;;;5134587;28;20242;-54
2021/01/05 12:19:24;;;;;;;24.25;14.30;;;;;;;;;;5117719;28;20324;-53
2021/01/05 12:21:54;;;;;;;22.40;13.80;;;;;;;;;;5137964;28;20286;-52
2021/01/05 12:24:30;;;;;;;23.30;14.25;;;;;;;;;;5138199;28;20228;-54
2021/01/05 12:26:59;;;;;;;24.42;14.13;;;;;;;;;;5124926;28;20186;-56
2021/01/05 12:29:27;;;;;;;26.45;15.38;;;;;;;;;;5117736;28;20203;-54
2021/01/05 12:32:04;;;;;;;24.20;14.93;;;;;;;;;;5117860;28;20206;-53
2021/01/05 12:34:33;;;;;;;25.83;14.35;;;;;;;;;;5126610;28;20217;-55
2021/01/05 12:37:02;;;;;;;31.02;16.02;;;;;;;;;;5138472;28;20175;-52
2021/01/05 12:39:37;;;;;;;26.42;14.52;;;;;;;;;;5138217;28;20186;-55
2021/01/05 12:42:11;;;;;;;27.67;14.50;;;;;;;;;;5138184;28;20217;-57
2021/01/05 12:44:41;;;;;;;22.85;14.15;;;;;;;;;;5138997;28;20186;-58
2021/01/05 12:47:14;;;;;;;27.40;15.18;;;;;;;;;;5137624;28;20209;-58
2021/01/05 12:49:41;;;;;;;29.83;14.73;;;;;;;;;;5118117;28;20221;-53
2021/01/05 12:52:10;;;;;;;29.17;14.85;;;;;;;;;;5117347;28;20187;-57
2021/01/05 12:54:39;;;;;;;24.40;13.95;;;;;;;;;;5116867;28;20226;-51
2021/01/05 12:57:07;;;;;;;29.58;15.65;;;;;;;;;;5117337;28;20229;-51
2021/01/05 12:59:36;;;;;;;24.33;14.90;;;;;;;;;;5116052;28;20195;-55
2021/01/05 13:02:03;;;;;;;28.60;17.23;;;;;;;;;;5117025;28;20214;-58
2021/01/05 13:04:30;;;;;;;28.45;14.13;;;;;;;;;;5120996;28;20176;-54
2021/01/05 13:07:16;;;;;;;26.55;14.93;;;;;;;;;;5117730;28;20359;-47
2021/01/05 13:09:43;;;;;;;28.10;16.48;;;;;;;;;;5112926;28;20199;-53
2021/01/05 13:12:11;;;;;;;32.42;17.48;;;;;;;;;;5117157;28;20210;-55
2021/01/05 13:15:07;;;;;;;27.40;15.40;;;;;;;;;;5117720;28;20232;-55
2021/01/05 13:17:39;;;;;;;27.08;14.88;;;;;;;;;;5126879;28;20226;-56
2021/01/05 13:20:10;;;;;;;29.70;14.38;;;;;;;;;;5137686;28;20190;-56
2021/01/05 13:22:38;;;;;;;24.38;13.63;;;;;;;;;;5137231;28;20207;-56
2021/01/05 13:25:05;;;;;;;26.73;15.90;;;;;;;;;;5131047;28;20229;-55
2021/01/05 13:27:32;;;;;;;31.33;15.60;;;;;;;;;;5116509;28;20192;-55
2021/01/05 13:30:21;;;;;;;26.33;16.48;;;;;;;;;;5123579;28;20194;-51
2021/01/05 13:32:52;;;;;;;31.90;16.90;;;;;;;;;;5137317;28;20228;-58
2021/01/05 13:35:19;;;;;;;26.58;15.05;;;;;;;;;;5126623;28;20218;-50
2021/01/05 13:37:58;;;;;;;31.35;17.05;;;;;;;;;;5134016;28;20202;-51
2021/01/05 13:40:25;;;;;;;26.65;14.85;;;;;;;;;;5136116;27;20214;-58
2021/01/05 13:42:56;;;;;;;33.30;17.55;;;;;;;;;;5134571;28;20212;-55
2021/01/05 13:45:37;;;;;;;31.10;15.50;;;;;;;;;;5137241;28;20199;-56
2021/01/05 13:48:04;;;;;;;31.73;17.13;;;;;;;;;;5134880;27;20306;-57
2021/01/05 13:50:33;;;;;;;28.95;15.98;;;;;;;;;;5135464;27;20253;-55
2021/01/05 13:53:05;;;;;;;25.15;15.02;;;;;;;;;;5127357;28;20267;-50
2021/01/05 13:55:36;;;;;;;27.83;16.13;;;;;;;;;;5125380;28;20194;-55
2021/01/05 13:58:05;;;;;;;27.42;17.02;;;;;;;;;;5119561;28;20207;-54
2021/01/05 14:00:47;;;;;;;30.38;16.00;;;;;;;;;;5115970;28;20213;-56
2021/01/05 14:03:15;;;;;;;26.02;16.75;;;;;;;;;;5136034;28;20201;-55
2021/01/05 14:05:42;;;;;;;34.47;15.88;;;;;;;;;;5117830;28;20205;-52
2021/01/05 14:08:27;;;;;;;27.10;16.30;;;;;;;;;;5130478;28;20203;-54
2021/01/05 14:11:01;;;;;;;27.67;15.30;;;;;;;;;;5134274;27;20193;-52
2021/01/05 14:13:29;;;;;;;24.65;14.35;;;;;;;;;;5135776;28;20210;-52
2021/01/05 14:16:13;;;;;;;25.73;15.82;;;;;;;;;;5136802;28;20189;-49
2021/01/05 14:18:44;;;;;;;28.58;14.73;;;;;;;;;;5137162;28;20217;-55
2021/01/05 14:21:12;;;;;;;31.65;15.48;;;;;;;;;;5137482;27;20214;-56
2021/01/05 14:23:41;;;;;;;27.60;16.25;;;;;;;;;;5137471;28;20190;-52
2021/01/05 14:26:14;;;;;;;34.67;16.40;;;;;;;;;;5126398;28;20187;-52
2021/01/05 14:28:58;;;;;;;27.35;15.20;;;;;;;;;;5134807;27;20236;-53
2021/01/05 14:31:27;;;;;;;25.35;15.07;;;;;;;;;;5137353;28;20193;-57
2021/01/05 14:33:54;;;;;;;23.80;14.65;;;;;;;;;;5136188;28;20253;-56
2021/01/05 14:36:32;;;;;;;28.73;14.10;;;;;;;;;;5136675;28;20186;-55
2021/01/05 14:39:13;;;;;;;19.23;12.93;;;;;;;;;;5136531;28;20185;-48
2021/01/05 14:41:42;;;;;;;25.58;12.77;;;;;;;;;;5135393;28;20195;-58
2021/01/05 14:44:23;;;;;;;21.55;12.40;;;;;;;;;;5136223;28;20347;-54
2021/01/05 14:46:53;;;;;;;19.58;11.30;;;;;;;;;;5118471;28;20187;-52
2021/01/05 14:49:30;;;;;;;20.20;11.45;;;;;;;;;;5115744;28;20208;-54
2021/01/05 14:52:00;;;;;;;21.15;10.93;;;;;;;;;;5136950;27;20292;-54
2021/01/05 14:54:27;;;;;;;16.05;9.05;;;;;;;;;;5156178;27;20200;-55
2021/01/05 14:59:59;;;;;;;16.88;10.13;;;;;;;;;;5151677;27;20436;-51
2021/01/05 15:02:25;;;;;;;15.75;9.60;;;;;;;;;;5128927;27;20246;-57
2021/01/05 15:05:13;;;;;;;17.40;10.43;;;;;;;;;;5131655;28;20235;-54
2021/01/05 15:07:46;;;;;;;16.40;11.30;;;;;;;;;;5121306;28;20191;-62
2021/01/05 15:10:15;;;;;;;16.45;9.38;;;;;;;;;;5135650;28;20227;-47
2021/01/05 15:12:42;;;;;;;16.10;9.02;;;;;;;;;;5135543;28;20256;-52
2021/01/05 15:15:20;;;;;;;16.35;10.00;;;;;;;;;;5135848;28;20229;-50
2021/01/05 15:17:47;;;;;;;20.75;11.80;;;;;;;;;;5137329;28;20182;-50
2021/01/05 15:20:20;;;;;;;24.70;11.95;;;;;;;;;;5136148;28;20236;-58
2021/01/05 15:22:48;;;;;;;16.38;10.65;;;;;;;;;;5135604;28;20207;-54